createdAt,value
2022-11-17T00:00:20.016Z,10.42
2022-11-17T00:01:20.017Z,10.42
2022-11-17T00:02:20.074Z,10.42
2022-11-17T00:03:20.010Z,10.43
2022-11-17T00:04:19.952Z,10.43
2022-11-17T00:05:19.983Z,10.43
2022-11-17T00:06:19.948Z,10.43
2022-11-17T00:07:20.026Z,10.43
2022-11-17T00:08:19.950Z,10.43
2022-11-17T00:09:19.936Z,10.43
2022-11-17T00:10:19.890Z,10.47
2022-11-17T00:11:19.882Z,10.47
2022-11-17T00:12:22.703Z,10.47
2022-11-17T00:13:19.875Z,10.49
2022-11-17T00:14:19.844Z,10.49
2022-11-17T00:15:19.834Z,10.47
2022-11-17T00:16:19.824Z,10.49
2022-11-17T00:17:19.782Z,10.51
2022-11-17T00:18:19.788Z,10.49
2022-11-17T00:19:19.761Z,10.51
2022-11-17T00:20:19.741Z,10.52
2022-11-17T00:21:19.732Z,10.51
2022-11-17T00:22:19.740Z,10.51
2022-11-17T00:23:19.720Z,10.51
2022-11-17T00:24:19.756Z,10.51
2022-11-17T00:25:19.670Z,10.52
2022-11-17T00:26:19.715Z,10.51
2022-11-17T00:27:19.661Z,10.54
2022-11-17T00:28:19.681Z,10.54
2022-11-17T00:29:19.652Z,10.55
2022-11-17T00:30:19.653Z,10.55
2022-11-17T00:31:19.621Z,10.58
2022-11-17T00:32:19.585Z,10.60
2022-11-17T00:33:19.602Z,10.58
2022-11-17T00:34:19.568Z,10.60
2022-11-17T00:35:19.550Z,10.60
2022-11-17T00:36:19.538Z,10.58
2022-11-17T00:37:19.527Z,10.60
2022-11-17T00:38:19.538Z,10.60
2022-11-17T00:39:19.521Z,10.60
2022-11-17T00:40:19.491Z,10.60
2022-11-17T00:41:19.468Z,10.63
2022-11-17T00:42:19.480Z,10.65
2022-11-17T00:43:19.465Z,10.65
2022-11-17T00:44:19.437Z,10.66
2022-11-17T00:45:19.441Z,10.66
2022-11-17T00:46:19.442Z,10.65
2022-11-17T00:47:19.396Z,10.65
2022-11-17T00:48:19.380Z,10.66
2022-11-17T00:49:19.399Z,10.65
2022-11-17T00:50:19.360Z,10.65
2022-11-17T00:51:19.356Z,10.63
2022-11-17T00:52:19.325Z,10.63
2022-11-17T00:53:19.327Z,10.65
2022-11-17T00:54:19.296Z,10.65
2022-11-17T00:55:19.430Z,10.65
2022-11-17T00:56:19.318Z,10.65
2022-11-17T00:57:19.284Z,10.65
2022-11-17T00:58:19.297Z,10.63
2022-11-17T00:59:19.233Z,10.63
2022-11-17T01:00:19.238Z,10.63
2022-11-17T01:01:19.316Z,10.63
2022-11-17T01:02:19.217Z,10.62
2022-11-17T01:03:19.207Z,10.63
2022-11-17T01:04:19.206Z,10.62
2022-11-17T01:05:19.226Z,10.62
2022-11-17T01:06:19.170Z,10.60
2022-11-17T01:07:19.198Z,10.58
2022-11-17T01:08:19.134Z,10.60
2022-11-17T01:09:19.128Z,10.55
2022-11-17T01:10:19.093Z,10.55
2022-11-17T01:11:19.099Z,10.54
2022-11-17T01:12:19.104Z,10.54
2022-11-17T01:13:19.073Z,10.54
2022-11-17T01:14:19.039Z,10.52
2022-11-17T01:15:19.024Z,10.51
2022-11-17T01:16:19.034Z,10.52
2022-11-17T01:17:19.069Z,10.49
2022-11-17T01:18:19.000Z,10.49
2022-11-17T01:19:18.986Z,10.49
2022-11-17T01:20:19.008Z,10.47
2022-11-17T01:21:18.960Z,10.47
2022-11-17T01:22:18.939Z,10.47
2022-11-17T01:23:18.965Z,10.46
2022-11-17T01:24:18.940Z,10.47
2022-11-17T01:25:18.935Z,10.46
2022-11-17T01:26:18.883Z,10.44
2022-11-17T01:27:18.869Z,10.44
2022-11-17T01:28:18.905Z,10.44
2022-11-17T01:29:18.868Z,10.43
2022-11-17T01:30:18.853Z,10.44
2022-11-17T01:31:18.810Z,10.43
2022-11-17T01:32:18.810Z,10.43
2022-11-17T01:33:18.843Z,10.43
2022-11-17T01:34:18.779Z,10.42
2022-11-17T01:35:18.781Z,10.43
2022-11-17T01:36:18.783Z,10.43
2022-11-17T01:37:18.777Z,10.43
2022-11-17T01:38:18.724Z,10.42
2022-11-17T01:39:18.751Z,10.42
2022-11-17T01:40:18.712Z,10.43
2022-11-17T01:41:18.688Z,10.42
2022-11-17T01:42:18.670Z,10.43
2022-11-17T01:43:18.703Z,10.43
2022-11-17T01:44:18.647Z,10.44
2022-11-17T01:45:18.660Z,10.43
2022-11-17T01:46:18.642Z,10.44
2022-11-17T01:47:18.607Z,10.43
2022-11-17T01:48:18.627Z,10.43
2022-11-17T01:49:18.591Z,10.42
2022-11-17T01:50:18.577Z,10.42
2022-11-17T01:51:18.554Z,10.43
2022-11-17T01:52:18.558Z,10.42
2022-11-17T01:53:18.537Z,10.43
2022-11-17T01:54:18.516Z,10.43
2022-11-17T01:55:18.558Z,10.42
2022-11-17T01:56:18.520Z,10.42
2022-11-17T01:57:18.596Z,10.42
2022-11-17T01:58:18.467Z,10.42
2022-11-17T01:59:18.448Z,10.42
2022-11-17T02:00:18.436Z,10.42
2022-11-17T02:01:18.481Z,10.42
2022-11-17T02:02:18.434Z,10.42
2022-11-17T02:03:18.406Z,10.43
2022-11-17T02:04:18.385Z,10.42
2022-11-17T02:05:18.388Z,10.42
2022-11-17T02:06:18.379Z,10.43
2022-11-17T02:07:18.378Z,10.42
2022-11-17T02:08:18.427Z,10.42
2022-11-17T02:09:18.348Z,10.43
2022-11-17T02:10:18.352Z,10.43
2022-11-17T02:11:18.287Z,10.42
2022-11-17T02:12:18.295Z,10.42
2022-11-17T02:13:18.292Z,10.42
2022-11-17T02:14:18.352Z,10.42
2022-11-17T02:15:18.257Z,10.43
2022-11-17T02:16:18.256Z,10.44
2022-11-17T02:17:18.210Z,10.44
2022-11-17T02:18:18.245Z,10.46
2022-11-17T02:19:18.201Z,10.47
2022-11-17T02:20:18.192Z,10.46
2022-11-17T02:21:18.163Z,10.47
2022-11-17T02:22:18.142Z,10.46
2022-11-17T02:23:18.151Z,10.46
2022-11-17T02:24:18.224Z,10.47
2022-11-17T02:25:21.698Z,10.47
2022-11-17T02:26:19.146Z,10.49
2022-11-17T02:27:18.156Z,10.49
2022-11-17T02:28:18.114Z,10.47
2022-11-17T02:29:18.094Z,10.47
2022-11-17T02:30:18.064Z,10.49
2022-11-17T02:31:18.056Z,10.49
2022-11-17T02:32:18.040Z,10.49
2022-11-17T02:33:18.063Z,10.52
2022-11-17T02:34:17.995Z,10.51
2022-11-17T02:35:17.991Z,10.49
2022-11-17T02:36:17.997Z,10.49
2022-11-17T02:37:17.973Z,10.49
2022-11-17T02:38:17.996Z,10.51
2022-11-17T02:39:17.979Z,10.49
2022-11-17T02:40:17.933Z,10.47
2022-11-17T02:41:17.919Z,10.49
2022-11-17T02:42:17.922Z,10.47
2022-11-17T02:43:17.940Z,10.49
2022-11-17T02:44:17.897Z,10.47
2022-11-17T02:45:18.006Z,10.47
2022-11-17T02:46:18.859Z,10.46
2022-11-17T02:47:17.871Z,10.46
2022-11-17T02:48:17.814Z,10.46
2022-11-17T02:49:17.877Z,10.46
2022-11-17T02:50:17.808Z,10.47
2022-11-17T02:51:17.809Z,10.46
2022-11-17T02:52:17.875Z,10.46
2022-11-17T02:53:17.810Z,10.44
2022-11-17T02:54:17.895Z,10.46
2022-11-17T02:55:17.886Z,10.44
2022-11-17T02:56:17.760Z,10.43
2022-11-17T02:57:17.725Z,10.44
2022-11-17T02:58:17.862Z,10.46
2022-11-17T02:59:17.759Z,10.44
2022-11-17T03:00:17.699Z,10.44
2022-11-17T03:01:17.687Z,10.43
2022-11-17T03:02:17.779Z,10.43
2022-11-17T03:03:17.642Z,10.42
2022-11-17T03:04:17.693Z,10.43
2022-11-17T03:05:17.584Z,10.39
2022-11-17T03:06:17.658Z,10.42
2022-11-17T03:08:34.790Z,10.43
2022-11-17T03:09:36.103Z,10.43
2022-11-17T03:10:34.665Z,10.43
2022-11-17T03:11:34.549Z,10.43
2022-11-17T03:12:34.621Z,10.43
2022-11-17T03:14:55.206Z,10.43
2022-11-17T03:15:47.725Z,10.44
2022-11-17T03:16:47.859Z,10.44
2022-11-17T03:17:47.724Z,10.43
2022-11-17T03:18:47.775Z,10.43
2022-11-17T03:19:47.716Z,10.44
2022-11-17T03:20:47.667Z,10.44
2022-11-17T03:21:47.675Z,10.46
2022-11-17T03:22:47.694Z,10.46
2022-11-17T03:23:47.643Z,10.47
2022-11-17T03:24:47.615Z,10.49
2022-11-17T03:25:47.716Z,10.49
2022-11-17T03:26:47.626Z,10.51
2022-11-17T03:27:47.575Z,10.49
2022-11-17T03:28:47.564Z,10.49
2022-11-17T03:29:47.664Z,10.51
2022-11-17T03:30:47.593Z,10.52
2022-11-17T03:31:47.530Z,10.52
2022-11-17T03:32:47.512Z,10.49
2022-11-17T03:33:47.550Z,10.54
2022-11-17T03:34:47.566Z,10.52
2022-11-17T03:35:50.625Z,10.51
2022-11-17T03:36:47.616Z,10.51
2022-11-17T03:37:47.522Z,10.49
2022-11-17T03:38:47.483Z,10.49
2022-11-17T03:39:47.489Z,10.47
2022-11-17T03:40:47.445Z,10.47
2022-11-17T03:41:47.405Z,10.46
2022-11-17T03:42:47.432Z,10.44
2022-11-17T03:43:57.760Z,10.43
2022-11-17T03:44:47.370Z,10.39
2022-11-17T03:45:48.315Z,10.39
2022-11-17T03:46:47.409Z,10.36
2022-11-17T03:47:47.434Z,10.35
2022-11-17T03:48:47.397Z,10.36
2022-11-17T03:49:47.304Z,10.35
2022-11-17T03:50:47.266Z,10.35
2022-11-17T03:51:47.302Z,10.36
2022-11-17T03:52:47.350Z,10.36
2022-11-17T03:53:47.260Z,10.36
2022-11-17T03:54:47.282Z,10.36
2022-11-17T03:55:47.235Z,10.38
2022-11-17T03:56:47.367Z,10.38
2022-11-17T03:59:12.713Z,10.39
2022-11-17T04:00:11.938Z,10.39
2022-11-17T04:01:11.891Z,10.42
2022-11-17T04:02:11.898Z,10.39
2022-11-17T04:03:10.819Z,10.42
2022-11-17T04:04:10.913Z,10.42
2022-11-17T04:05:11.125Z,10.42
2022-11-17T04:06:12.112Z,10.43
2022-11-17T04:07:13.042Z,10.42
2022-11-17T04:08:11.089Z,10.39
2022-11-17T04:09:11.247Z,10.38
2022-11-17T04:10:10.685Z,10.38
2022-11-17T04:11:10.691Z,10.36
2022-11-17T04:12:10.780Z,10.38
2022-11-17T04:13:11.767Z,10.36
2022-11-17T04:14:10.619Z,10.36
2022-11-17T04:15:10.687Z,10.35
2022-11-17T04:16:10.828Z,10.35
2022-11-17T04:17:10.578Z,10.32
2022-11-17T04:18:10.585Z,10.32
2022-11-17T04:19:10.640Z,10.31
2022-11-17T04:20:10.546Z,10.28
2022-11-17T04:21:10.602Z,10.29
2022-11-17T04:22:10.549Z,10.28
2022-11-17T04:23:10.521Z,10.28
2022-11-17T04:24:10.562Z,10.28
2022-11-17T04:25:10.467Z,10.26
2022-11-17T04:26:10.534Z,10.26
2022-11-17T04:27:10.541Z,10.26
2022-11-17T04:28:10.461Z,10.28
2022-11-17T04:29:11.474Z,10.28
2022-11-17T04:30:10.549Z,10.28
2022-11-17T04:31:10.422Z,10.26
2022-11-17T04:32:10.403Z,10.28
2022-11-17T04:33:10.421Z,10.28
2022-11-17T04:34:31.397Z,10.26
2022-11-17T04:35:10.438Z,10.26
2022-11-17T04:36:10.465Z,10.26
2022-11-17T04:37:10.341Z,10.28
2022-11-17T04:39:30.532Z,10.26
2022-11-17T04:42:04.880Z,10.25
2022-11-17T04:43:04.789Z,10.25
2022-11-17T04:45:52.079Z,10.24
2022-11-17T04:46:52.644Z,10.22
2022-11-17T04:47:52.523Z,10.22
2022-11-17T04:48:51.488Z,10.24
2022-11-17T04:49:51.450Z,10.26
2022-11-17T04:50:51.440Z,10.26
2022-11-17T04:51:51.435Z,10.32
2022-11-17T04:52:51.479Z,10.31
2022-11-17T04:53:51.385Z,10.34
2022-11-17T04:54:52.389Z,10.35
2022-11-17T04:55:51.480Z,10.36
2022-11-17T04:56:51.493Z,10.38
2022-11-17T04:57:51.483Z,10.42
2022-11-17T04:58:51.373Z,10.43
2022-11-17T04:59:51.402Z,10.43
2022-11-17T05:00:51.382Z,10.44
2022-11-17T05:03:05.113Z,10.47
2022-11-17T05:04:05.412Z,10.49
2022-11-17T05:06:31.834Z,10.52
2022-11-17T05:08:49.347Z,10.54
2022-11-17T05:09:49.311Z,10.52
2022-11-17T05:12:23.343Z,10.54
2022-11-17T05:13:24.114Z,10.54
2022-11-17T05:14:23.304Z,10.55
2022-11-17T05:15:23.100Z,10.55
2022-11-17T05:16:23.125Z,10.55
2022-11-17T05:17:23.163Z,10.54
2022-11-17T05:18:23.125Z,10.54
2022-11-17T05:19:23.086Z,10.54
2022-11-17T05:20:23.001Z,10.54
2022-11-17T05:21:23.048Z,10.55
2022-11-17T05:22:23.100Z,10.54
2022-11-17T05:23:23.000Z,10.54
2022-11-17T05:24:23.041Z,10.55
2022-11-17T05:25:23.021Z,10.55
2022-11-17T05:26:22.988Z,10.54
2022-11-17T05:27:22.959Z,10.54
2022-11-17T05:28:22.915Z,10.54
2022-11-17T05:29:22.901Z,10.54
2022-11-17T05:30:22.924Z,10.55
2022-11-17T05:32:55.023Z,10.55
2022-11-17T05:33:55.001Z,10.52
2022-11-17T05:35:04.189Z,10.52
2022-11-17T05:35:54.939Z,10.54
2022-11-17T05:36:54.956Z,10.54
2022-11-17T05:37:54.947Z,10.52
2022-11-17T05:38:54.930Z,10.54
2022-11-17T05:39:54.884Z,10.54
2022-11-17T05:40:54.927Z,10.52
2022-11-17T05:41:54.926Z,10.51
2022-11-17T05:42:57.198Z,10.51
2022-11-17T05:43:54.878Z,10.47
2022-11-17T05:44:54.817Z,10.51
2022-11-17T05:45:54.824Z,10.49
2022-11-17T05:46:54.827Z,10.49
2022-11-17T05:47:54.777Z,10.46
2022-11-17T05:48:54.757Z,10.46
2022-11-17T05:49:54.744Z,10.44
2022-11-17T05:50:54.786Z,10.46
2022-11-17T05:51:54.752Z,10.46
2022-11-17T05:52:54.724Z,10.46
2022-11-17T05:53:54.711Z,10.44
2022-11-17T05:54:54.733Z,10.44
2022-11-17T05:55:54.674Z,10.44
2022-11-17T05:56:54.697Z,10.44
2022-11-17T05:57:54.677Z,10.46
2022-11-17T05:58:54.646Z,10.46
2022-11-17T05:59:54.619Z,10.46
2022-11-17T06:00:54.637Z,10.47
2022-11-17T06:01:54.622Z,10.44
2022-11-17T06:02:54.583Z,10.44
2022-11-17T06:03:54.700Z,10.46
2022-11-17T06:04:54.607Z,10.44
2022-11-17T06:05:54.573Z,10.44
2022-11-17T06:06:54.621Z,10.44
2022-11-17T06:07:54.544Z,10.44
2022-11-17T06:08:54.552Z,10.44
2022-11-17T06:09:54.519Z,10.43
2022-11-17T06:10:54.484Z,10.42
2022-11-17T06:11:54.524Z,10.42
2022-11-17T06:12:54.498Z,10.42
2022-11-17T06:13:54.449Z,10.43
2022-11-17T06:14:54.444Z,10.42
2022-11-17T06:15:54.460Z,10.42
2022-11-17T06:16:54.443Z,10.39
2022-11-17T06:17:54.411Z,10.42
2022-11-17T06:18:54.424Z,10.39
2022-11-17T06:19:54.387Z,10.39
2022-11-17T06:20:54.358Z,10.38
2022-11-17T06:22:11.738Z,10.39
2022-11-17T06:22:55.333Z,10.38
2022-11-17T06:23:54.408Z,10.39
2022-11-17T06:24:55.530Z,10.39
2022-11-17T06:25:54.289Z,10.38
2022-11-17T06:26:54.320Z,10.38
2022-11-17T06:27:54.300Z,10.38
2022-11-17T06:28:54.271Z,10.38
2022-11-17T06:29:54.236Z,10.38
2022-11-17T06:30:54.254Z,10.36
2022-11-17T06:31:54.347Z,10.38
2022-11-17T06:32:54.220Z,10.38
2022-11-17T06:33:54.203Z,10.38
2022-11-17T06:34:56.264Z,10.38
2022-11-17T06:35:54.179Z,10.38
2022-11-17T06:36:54.177Z,10.36
2022-11-17T06:37:54.172Z,10.35
2022-11-17T06:38:54.130Z,10.38
2022-11-17T06:39:54.180Z,10.36
2022-11-17T06:40:54.118Z,10.36
2022-11-17T06:41:54.085Z,10.36
2022-11-17T06:42:54.083Z,10.35
2022-11-17T06:43:54.102Z,10.35
2022-11-17T06:44:54.058Z,10.32
2022-11-17T06:45:54.073Z,10.34
2022-11-17T06:46:54.109Z,10.34
2022-11-17T06:47:54.012Z,10.34
2022-11-17T06:48:54.015Z,10.34
2022-11-17T06:49:54.006Z,10.34
2022-11-17T06:50:53.982Z,10.34
2022-11-17T06:51:53.963Z,10.34
2022-11-17T06:52:54.036Z,10.34
2022-11-17T06:53:53.980Z,10.34
2022-11-17T06:54:54.040Z,10.35
2022-11-17T06:55:53.951Z,10.35
2022-11-17T06:56:53.947Z,10.35
2022-11-17T06:57:53.974Z,10.35
2022-11-17T06:58:53.955Z,10.36
2022-11-17T07:44:49.642Z,10.44
2022-11-17T07:45:50.478Z,10.44
2022-11-17T07:46:49.591Z,10.42
2022-11-17T07:57:49.596Z,10.34
2022-11-17T07:58:49.462Z,10.34
2022-11-17T07:59:49.458Z,10.35
2022-11-17T08:00:49.525Z,10.36
2022-11-17T08:01:58.291Z,10.35
2022-11-17T08:02:50.850Z,10.36
2022-11-17T08:05:13.260Z,10.42
2022-11-17T08:06:12.379Z,10.43
2022-11-17T08:07:12.237Z,10.43
2022-11-17T08:14:35.388Z,10.49
2022-11-17T08:18:28.136Z,10.52
2022-11-17T08:21:17.347Z,10.54
2022-11-17T08:22:18.113Z,10.54
2022-11-17T08:23:18.179Z,10.55
2022-11-17T08:27:14.534Z,10.57
2022-11-17T08:28:20.383Z,10.57
2022-11-17T08:29:15.883Z,10.57
2022-11-17T08:34:06.531Z,10.63
2022-11-17T08:35:37.103Z,10.65
2022-11-17T08:36:09.949Z,10.65
2022-11-17T08:37:05.942Z,10.65
2022-11-17T08:38:04.736Z,10.65
2022-11-17T08:39:04.595Z,10.65
2022-11-17T08:40:04.619Z,10.66
2022-11-17T08:41:04.613Z,10.65
2022-11-17T08:42:04.573Z,10.66
2022-11-17T08:43:04.533Z,10.65
2022-11-17T08:44:04.525Z,10.66
2022-11-17T08:45:04.492Z,10.68
2022-11-17T08:46:04.502Z,10.68
2022-11-17T08:47:04.512Z,10.70
2022-11-17T08:48:04.481Z,10.69
2022-11-17T08:49:04.471Z,10.70
2022-11-17T08:50:04.544Z,10.69
2022-11-17T08:51:04.426Z,10.70
2022-11-17T08:52:04.450Z,10.70
2022-11-17T08:53:04.415Z,10.73
2022-11-17T08:54:04.447Z,10.75
2022-11-17T08:55:04.425Z,10.78
2022-11-17T08:56:04.423Z,10.80
2022-11-17T08:57:04.423Z,10.80
2022-11-17T08:58:04.411Z,10.81
2022-11-17T08:59:04.381Z,10.81
2022-11-17T09:00:04.305Z,10.84
2022-11-17T09:01:05.595Z,10.86
2022-11-17T09:02:04.313Z,10.87
2022-11-17T09:03:04.305Z,10.87
2022-11-17T09:04:04.269Z,10.86
2022-11-17T09:05:04.245Z,10.87
2022-11-17T09:06:04.275Z,10.88
2022-11-17T09:07:04.390Z,10.87
2022-11-17T09:08:22.916Z,10.87
2022-11-17T09:09:05.457Z,10.87
2022-11-17T09:10:13.083Z,10.88
2022-11-17T09:11:04.155Z,10.91
2022-11-17T09:12:04.237Z,10.93
2022-11-17T09:13:04.141Z,10.93
2022-11-17T09:14:04.177Z,10.94
2022-11-17T09:15:04.163Z,10.95
2022-11-17T09:16:04.143Z,10.95
2022-11-17T09:17:04.105Z,10.99
2022-11-17T09:18:04.122Z,10.98
2022-11-17T09:19:04.084Z,11.01
2022-11-17T09:20:04.090Z,11.03
2022-11-17T09:21:04.092Z,11.06
2022-11-17T09:22:04.851Z,11.06
2022-11-17T09:23:04.035Z,11.06
2022-11-17T09:24:12.033Z,11.06
2022-11-17T09:25:07.471Z,11.11
2022-11-17T09:26:05.032Z,11.11
2022-11-17T09:27:04.363Z,11.12
2022-11-17T09:28:04.283Z,11.19
2022-11-17T09:29:03.934Z,11.21
2022-11-17T09:30:04.035Z,11.23
2022-11-17T09:31:04.088Z,11.23
2022-11-17T09:32:03.938Z,11.26
2022-11-17T09:33:03.859Z,11.28
2022-11-17T09:34:05.847Z,11.30
2022-11-17T09:35:03.853Z,11.33
2022-11-17T09:36:03.872Z,11.38
2022-11-17T09:37:03.851Z,11.41
2022-11-17T09:38:03.917Z,11.42
2022-11-17T09:39:03.841Z,11.44
2022-11-17T09:40:03.817Z,11.45
2022-11-17T09:41:03.747Z,11.44
2022-11-17T09:42:03.824Z,11.48
2022-11-17T09:43:03.772Z,11.49
2022-11-17T09:44:03.729Z,11.54
2022-11-17T09:45:03.726Z,11.53
2022-11-17T09:46:07.554Z,11.54
2022-11-17T09:47:03.668Z,11.56
2022-11-17T09:48:33.472Z,11.63
2022-11-17T09:49:04.740Z,11.63
2022-11-17T09:50:03.709Z,11.67
2022-11-17T09:51:03.690Z,11.69
2022-11-17T09:52:03.659Z,11.67
2022-11-17T09:53:03.670Z,11.70
2022-11-17T09:54:03.639Z,11.72
2022-11-17T09:55:03.624Z,11.77
2022-11-17T09:56:03.598Z,11.84
2022-11-17T09:57:03.617Z,11.85
2022-11-17T09:58:03.571Z,11.85
2022-11-17T09:59:03.532Z,11.90
2022-11-17T10:00:03.564Z,11.96
2022-11-17T10:01:03.519Z,12.00
2022-11-17T10:02:03.574Z,12.00
2022-11-17T10:03:03.484Z,12.01
2022-11-17T10:04:03.518Z,11.98
2022-11-17T10:05:03.452Z,11.98
2022-11-17T10:06:03.446Z,11.97
2022-11-17T10:07:03.501Z,11.98
2022-11-17T10:08:03.433Z,11.96
2022-11-17T10:09:03.441Z,11.93
2022-11-17T10:10:04.225Z,11.94
2022-11-17T10:11:03.380Z,11.88
2022-11-17T10:12:03.380Z,11.88
2022-11-17T10:13:03.349Z,11.88
2022-11-17T10:14:03.335Z,11.87
2022-11-17T10:15:03.357Z,11.87
2022-11-17T10:16:03.303Z,11.87
2022-11-17T10:17:03.368Z,11.85
2022-11-17T10:18:03.285Z,11.82
2022-11-17T10:19:03.306Z,11.78
2022-11-17T10:20:03.339Z,11.75
2022-11-17T10:21:03.403Z,11.75
2022-11-17T10:22:04.303Z,11.75
2022-11-17T10:23:03.398Z,11.75
2022-11-17T10:24:03.431Z,11.77
2022-11-17T10:25:03.610Z,11.77
2022-11-17T10:26:03.443Z,11.77
2022-11-17T10:27:03.310Z,11.77
2022-11-17T10:28:03.315Z,11.77
2022-11-17T10:29:08.215Z,11.75
2022-11-17T10:30:04.213Z,11.75
2022-11-17T10:31:03.137Z,11.72
2022-11-17T10:32:03.151Z,11.72
2022-11-17T10:33:03.134Z,11.75
2022-11-17T10:34:03.150Z,11.79
2022-11-17T10:35:03.172Z,11.78
2022-11-17T10:36:03.185Z,11.78
2022-11-17T10:37:03.154Z,11.79
2022-11-17T10:38:03.073Z,11.82
2022-11-17T10:39:03.049Z,11.81
2022-11-17T10:40:03.054Z,11.82
2022-11-17T10:41:03.027Z,11.82
2022-11-17T10:42:03.014Z,11.81
2022-11-17T10:43:02.966Z,11.81
2022-11-17T10:44:02.966Z,11.84
2022-11-17T10:45:03.012Z,11.84
2022-11-17T10:46:03.001Z,11.84
2022-11-17T10:47:03.276Z,11.87
2022-11-17T10:48:03.326Z,11.88
2022-11-17T10:49:02.900Z,11.90
2022-11-17T10:50:02.992Z,11.90
2022-11-17T10:51:02.975Z,11.90
2022-11-17T10:52:02.923Z,11.90
2022-11-17T10:53:02.851Z,11.90
2022-11-17T10:54:02.879Z,11.90
2022-11-17T10:55:02.816Z,11.88
2022-11-17T10:56:02.810Z,11.90
2022-11-17T10:57:02.812Z,11.90
2022-11-17T10:58:02.791Z,11.90
2022-11-17T10:59:02.800Z,11.87
2022-11-17T11:00:02.767Z,11.88
2022-11-17T11:01:02.829Z,11.93
2022-11-17T11:02:02.777Z,11.93
2022-11-17T11:03:02.701Z,11.88
2022-11-17T11:04:02.762Z,11.88
2022-11-17T11:05:02.672Z,11.87
2022-11-17T11:06:03.751Z,11.87
2022-11-17T11:07:02.738Z,11.90
2022-11-17T11:08:02.736Z,11.94
2022-11-17T11:09:02.662Z,11.93
2022-11-17T11:10:02.642Z,11.94
2022-11-17T11:11:02.629Z,11.98
2022-11-17T11:12:02.619Z,11.98
2022-11-17T11:13:02.569Z,11.97
2022-11-17T11:14:02.581Z,11.98
2022-11-17T11:15:03.550Z,11.98
2022-11-17T11:16:02.630Z,12.00
2022-11-17T11:17:03.590Z,12.01
2022-11-17T11:18:02.555Z,12.04
2022-11-17T11:19:03.598Z,12.04
2022-11-17T11:20:02.514Z,12.05
2022-11-17T11:21:02.674Z,12.05
2022-11-17T11:22:02.600Z,12.04
2022-11-17T11:23:02.462Z,12.01
2022-11-17T11:24:02.486Z,12.03
2022-11-17T11:25:02.443Z,11.98
2022-11-17T11:26:02.448Z,11.98
2022-11-17T11:27:02.413Z,11.96
2022-11-17T11:28:02.426Z,11.96
2022-11-17T11:29:02.371Z,11.96
2022-11-17T11:30:02.413Z,11.96
2022-11-17T11:31:02.378Z,11.96
2022-11-17T11:32:02.331Z,11.94
2022-11-17T11:33:02.340Z,11.98
2022-11-17T11:34:02.353Z,12.01
2022-11-17T11:35:02.270Z,12.08
2022-11-17T11:36:02.271Z,12.12
2022-11-17T11:37:02.544Z,12.11
2022-11-17T11:38:02.380Z,12.12
2022-11-17T11:39:02.276Z,12.15
2022-11-17T11:40:02.357Z,12.16
2022-11-17T11:41:02.255Z,12.15
2022-11-17T11:42:07.753Z,12.16
2022-11-17T11:43:03.169Z,12.15
2022-11-17T11:44:02.412Z,12.16
2022-11-17T11:45:02.191Z,12.15
2022-11-17T11:46:02.130Z,12.16
2022-11-17T11:47:02.173Z,12.18
2022-11-17T11:48:02.123Z,12.19
2022-11-17T11:49:02.145Z,12.19
2022-11-17T11:50:02.121Z,12.21
2022-11-17T11:51:02.332Z,12.21
2022-11-17T11:52:03.228Z,12.22
2022-11-17T11:53:11.745Z,12.19
2022-11-17T11:54:02.034Z,12.21
2022-11-17T11:55:02.044Z,12.21
2022-11-17T11:56:02.172Z,12.18
2022-11-17T11:57:02.063Z,12.19
2022-11-17T11:58:02.057Z,12.15
2022-11-17T11:59:01.983Z,12.16
2022-11-17T12:00:04.403Z,12.15
2022-11-17T12:01:01.982Z,12.15
2022-11-17T12:02:02.050Z,12.16
2022-11-17T12:03:02.172Z,12.19
2022-11-17T12:04:01.962Z,12.19
2022-11-17T12:05:01.909Z,12.21
2022-11-17T12:06:01.913Z,12.22
2022-11-17T12:07:02.003Z,12.23
2022-11-17T12:08:06.027Z,12.30
2022-11-17T12:09:02.826Z,12.33
2022-11-17T12:10:01.866Z,12.33
2022-11-17T12:11:01.853Z,12.36
2022-11-17T12:12:01.972Z,12.43
2022-11-17T12:13:01.867Z,12.48
2022-11-17T12:14:01.871Z,12.52
2022-11-17T12:15:01.820Z,12.54
2022-11-17T12:16:01.760Z,12.55
2022-11-17T12:17:01.770Z,12.58
2022-11-17T12:18:01.719Z,12.58
2022-11-17T12:19:01.692Z,12.59
2022-11-17T12:20:09.289Z,12.59
2022-11-17T12:21:02.715Z,12.56
2022-11-17T12:22:01.691Z,12.58
2022-11-17T12:23:01.650Z,12.54
2022-11-17T12:24:01.678Z,12.54
2022-11-17T12:25:01.651Z,12.52
2022-11-17T12:26:01.655Z,12.52
2022-11-17T12:27:01.648Z,12.51
2022-11-17T12:28:01.606Z,12.49
2022-11-17T12:29:01.557Z,12.48
2022-11-17T12:30:01.602Z,12.46
2022-11-17T12:31:06.620Z,12.44
2022-11-17T12:32:02.621Z,12.43
2022-11-17T12:33:01.561Z,12.41
2022-11-17T12:34:01.602Z,12.40
2022-11-17T12:35:02.498Z,12.40
2022-11-17T12:36:01.491Z,12.41
2022-11-17T12:37:01.519Z,12.43
2022-11-17T12:38:01.544Z,12.40
2022-11-17T12:39:01.450Z,12.40
2022-11-17T12:40:01.420Z,12.40
2022-11-17T12:41:12.008Z,12.38
2022-11-17T12:42:01.487Z,12.44
2022-11-17T12:43:02.389Z,12.46
2022-11-17T12:44:01.398Z,12.48
2022-11-17T12:45:01.413Z,12.49
2022-11-17T12:46:09.920Z,12.51
2022-11-17T12:47:15.374Z,12.51
2022-11-17T12:48:26.749Z,12.52
2022-11-17T12:49:02.374Z,12.51
2022-11-17T12:50:01.379Z,12.49
2022-11-17T12:51:05.023Z,12.44
2022-11-17T12:52:01.275Z,12.44
2022-11-17T12:53:01.316Z,12.48
2022-11-17T12:54:01.314Z,12.49
2022-11-17T12:55:01.320Z,12.48
2022-11-17T12:56:01.265Z,12.44
2022-11-17T12:57:01.200Z,12.43
2022-11-17T12:58:03.006Z,12.46
2022-11-17T12:59:02.234Z,12.44
2022-11-17T13:00:01.223Z,12.44
2022-11-17T13:01:01.271Z,12.44
2022-11-17T13:02:01.176Z,12.43
2022-11-17T13:03:01.163Z,12.44
2022-11-17T13:04:01.194Z,12.43
2022-11-17T13:05:13.366Z,12.44
2022-11-17T13:07:16.509Z,12.43
2022-11-17T13:08:16.408Z,12.40
2022-11-17T13:09:16.384Z,12.40
2022-11-17T13:10:16.479Z,12.38
2022-11-17T13:11:16.394Z,12.37
2022-11-17T13:12:16.432Z,12.36
2022-11-17T13:13:16.571Z,12.36
2022-11-17T13:14:16.843Z,12.37
2022-11-17T13:15:16.344Z,12.38
2022-11-17T13:16:16.298Z,12.36
2022-11-17T13:17:26.641Z,12.36
2022-11-17T13:18:16.334Z,12.34
2022-11-17T13:19:16.278Z,12.34
2022-11-17T13:20:16.233Z,12.31
2022-11-17T13:21:16.205Z,12.33
2022-11-17T13:22:16.204Z,12.31
2022-11-17T13:23:16.225Z,12.34
2022-11-17T13:24:16.242Z,12.33
2022-11-17T13:25:16.163Z,12.33
2022-11-17T13:26:16.210Z,12.33
2022-11-17T13:27:16.150Z,12.33
2022-11-17T13:28:16.140Z,12.31
2022-11-17T13:29:16.137Z,12.33
2022-11-17T13:30:16.103Z,12.31
2022-11-17T13:31:16.090Z,12.29
2022-11-17T13:32:16.069Z,12.30
2022-11-17T13:33:16.098Z,12.30
2022-11-17T13:34:16.644Z,12.26
2022-11-17T13:35:16.057Z,12.26
2022-11-17T13:36:16.029Z,12.25
2022-11-17T13:37:16.013Z,12.26
2022-11-17T13:38:16.007Z,12.29
2022-11-17T13:39:16.062Z,12.26
2022-11-17T13:40:15.962Z,12.23
2022-11-17T13:41:15.985Z,12.26
2022-11-17T13:42:16.923Z,12.29
2022-11-17T13:43:16.059Z,12.29
2022-11-17T13:44:16.291Z,12.33
2022-11-17T13:45:15.910Z,12.31
2022-11-17T13:46:16.888Z,12.36
2022-11-17T13:47:20.372Z,12.36
2022-11-17T13:48:15.870Z,12.36
2022-11-17T13:49:15.879Z,12.38
2022-11-17T13:50:16.866Z,12.40
2022-11-17T13:51:15.879Z,12.40
2022-11-17T13:52:15.888Z,12.41
2022-11-17T13:53:15.820Z,12.41
2022-11-17T13:54:16.247Z,12.43
2022-11-17T13:55:15.764Z,12.43
2022-11-17T13:56:15.769Z,12.41
2022-11-17T13:57:15.776Z,12.41
2022-11-17T13:58:21.271Z,12.43
2022-11-17T13:59:16.735Z,12.43
2022-11-17T14:00:15.707Z,12.44
2022-11-17T14:01:15.722Z,12.43
2022-11-17T14:02:15.673Z,12.44
2022-11-17T14:03:15.676Z,12.43
2022-11-17T14:04:19.837Z,12.46
2022-11-17T14:05:15.627Z,12.46
2022-11-17T14:06:15.605Z,12.46
2022-11-17T14:07:15.664Z,12.46
2022-11-17T14:08:15.583Z,12.44
2022-11-17T14:09:15.622Z,12.40
2022-11-17T14:10:15.762Z,12.41
2022-11-17T14:11:15.813Z,12.41
2022-11-17T14:12:15.647Z,12.41
2022-11-17T14:13:15.630Z,12.40
2022-11-17T14:14:15.888Z,12.38
2022-11-17T14:15:15.507Z,12.37
2022-11-17T14:16:15.521Z,12.36
2022-11-17T14:17:15.648Z,12.33
2022-11-17T14:18:15.476Z,12.33
2022-11-17T14:19:15.487Z,12.33
2022-11-17T14:20:16.383Z,12.31
2022-11-17T14:21:15.564Z,12.31
2022-11-17T14:22:22.338Z,12.33
2022-11-17T14:23:16.501Z,12.31